sensor_id;sensor_type;location;lat;lon;timestamp;P1;durP1;ratioP1;P2;durP2;ratioP2
53010;SDS011;42803;55.762;38.084;2023-01-30T00:01:43;15.80;;;6.75;;
53010;SDS011;42803;55.762;38.084;2023-01-30T00:04:14;21.17;;;7.18;;
53010;SDS011;42803;55.762;38.084;2023-01-30T00:06:43;19.02;;;7.47;;
53010;SDS011;42803;55.762;38.084;2023-01-30T00:09:13;15.38;;;7.35;;
53010;SDS011;42803;55.762;38.084;2023-01-30T00:11:43;18.67;;;7.53;;
53010;SDS011;42803;55.762;38.084;2023-01-30T00:14:14;13.50;;;7.15;;
53010;SDS011;42803;55.762;38.084;2023-01-30T00:16:43;18.52;;;7.32;;
53010;SDS011;42803;55.762;38.084;2023-01-30T00:19:12;16.80;;;7.60;;
53010;SDS011;42803;55.762;38.084;2023-01-30T00:21:42;19.70;;;7.22;;
53010;SDS011;42803;55.762;38.084;2023-01-30T00:24:11;17.38;;;7.32;;
53010;SDS011;42803;55.762;38.084;2023-01-30T00:26:40;19.10;;;7.85;;
53010;SDS011;42803;55.762;38.084;2023-01-30T00:29:09;18.63;;;7.13;;
53010;SDS011;42803;55.762;38.084;2023-01-30T00:31:40;19.48;;;8.10;;
53010;SDS011;42803;55.762;38.084;2023-01-30T00:34:09;19.60;;;6.75;;
53010;SDS011;42803;55.762;38.084;2023-01-30T00:36:39;14.60;;;7.03;;
53010;SDS011;42803;55.762;38.084;2023-01-30T00:39:08;18.42;;;6.60;;
53010;SDS011;42803;55.762;38.084;2023-01-30T00:41:37;22.83;;;7.25;;
53010;SDS011;42803;55.762;38.084;2023-01-30T00:47:10;14.20;;;5.85;;
53010;SDS011;42803;55.762;38.084;2023-01-30T00:49:39;13.05;;;5.85;;
53010;SDS011;42803;55.762;38.084;2023-01-30T00:52:09;12.75;;;5.80;;
53010;SDS011;42803;55.762;38.084;2023-01-30T00:54:38;14.80;;;5.63;;
53010;SDS011;42803;55.762;38.084;2023-01-30T00:57:07;14.63;;;6.00;;
53010;SDS011;42803;55.762;38.084;2023-01-30T00:59:36;16.30;;;6.88;;
53010;SDS011;42803;55.762;38.084;2023-01-30T01:02:05;19.80;;;6.10;;
53010;SDS011;42803;55.762;38.084;2023-01-30T01:04:37;13.80;;;5.60;;
53010;SDS011;42803;55.762;38.084;2023-01-30T01:09:40;14.10;;;5.78;;
53010;SDS011;42803;55.762;38.084;2023-01-30T01:12:09;15.88;;;6.13;;
53010;SDS011;42803;55.762;38.084;2023-01-30T01:14:39;15.20;;;6.40;;
53010;SDS011;42803;55.762;38.084;2023-01-30T01:17:08;16.50;;;6.15;;
53010;SDS011;42803;55.762;38.084;2023-01-30T01:19:39;17.83;;;7.45;;
53010;SDS011;42803;55.762;38.084;2023-01-30T01:22:08;18.70;;;7.38;;
53010;SDS011;42803;55.762;38.084;2023-01-30T01:24:37;16.30;;;6.95;;
53010;SDS011;42803;55.762;38.084;2023-01-30T01:27:07;13.30;;;6.00;;
53010;SDS011;42803;55.762;38.084;2023-01-30T01:29:38;15.75;;;7.00;;
53010;SDS011;42803;55.762;38.084;2023-01-30T01:32:07;20.00;;;7.28;;
53010;SDS011;42803;55.762;38.084;2023-01-30T01:34:36;18.23;;;7.18;;
53010;SDS011;42803;55.762;38.084;2023-01-30T01:37:07;14.90;;;6.25;;
53010;SDS011;42803;55.762;38.084;2023-01-30T01:39:36;17.45;;;7.35;;
53010;SDS011;42803;55.762;38.084;2023-01-30T01:42:22;20.27;;;7.10;;
53010;SDS011;42803;55.762;38.084;2023-01-30T01:44:58;15.95;;;6.95;;
53010;SDS011;42803;55.762;38.084;2023-01-30T01:47:30;15.73;;;7.00;;
53010;SDS011;42803;55.762;38.084;2023-01-30T01:50:01;21.20;;;7.07;;
53010;SDS011;42803;55.762;38.084;2023-01-30T01:52:35;17.90;;;6.65;;
53010;SDS011;42803;55.762;38.084;2023-01-30T01:55:04;14.25;;;6.18;;
53010;SDS011;42803;55.762;38.084;2023-01-30T01:57:37;14.77;;;6.15;;
53010;SDS011;42803;55.762;38.084;2023-01-30T02:00:10;17.40;;;7.60;;
53010;SDS011;42803;55.762;38.084;2023-01-30T02:02:41;13.60;;;5.88;;
53010;SDS011;42803;55.762;38.084;2023-01-30T02:05:13;14.77;;;5.78;;
53010;SDS011;42803;55.762;38.084;2023-01-30T02:07:49;15.57;;;7.63;;
53010;SDS011;42803;55.762;38.084;2023-01-30T02:10:21;14.52;;;6.55;;
53010;SDS011;42803;55.762;38.084;2023-01-30T02:12:52;14.10;;;6.45;;
53010;SDS011;42803;55.762;38.084;2023-01-30T02:15:22;19.13;;;6.90;;
53010;SDS011;42803;55.762;38.084;2023-01-30T02:17:51;12.18;;;5.80;;
53010;SDS011;42803;55.762;38.084;2023-01-30T02:20:22;14.30;;;6.93;;
53010;SDS011;42803;55.762;38.084;2023-01-30T02:23:07;18.33;;;7.13;;
53010;SDS011;42803;55.762;38.084;2023-01-30T02:29:14;17.98;;;6.80;;
53010;SDS011;42803;55.762;38.084;2023-01-30T02:32:16;17.00;;;6.45;;
53010;SDS011;42803;55.762;38.084;2023-01-30T02:34:54;18.88;;;8.13;;
53010;SDS011;42803;55.762;38.084;2023-01-30T02:37:30;17.50;;;6.75;;
53010;SDS011;42803;55.762;38.084;2023-01-30T02:40:15;17.90;;;6.63;;
53010;SDS011;42803;55.762;38.084;2023-01-30T02:42:56;16.40;;;6.75;;
53010;SDS011;42803;55.762;38.084;2023-01-30T02:45:35;17.98;;;7.05;;
53010;SDS011;42803;55.762;38.084;2023-01-30T02:48:14;17.73;;;6.38;;
53010;SDS011;42803;55.762;38.084;2023-01-30T02:50:49;17.48;;;7.15;;
53010;SDS011;42803;55.762;38.084;2023-01-30T02:53:23;12.93;;;6.07;;
53010;SDS011;42803;55.762;38.084;2023-01-30T02:55:52;17.00;;;7.07;;
53010;SDS011;42803;55.762;38.084;2023-01-30T02:58:21;18.55;;;7.30;;
53010;SDS011;42803;55.762;38.084;2023-01-30T03:04:04;18.98;;;7.15;;
53010;SDS011;42803;55.762;38.084;2023-01-30T03:07:08;15.15;;;5.60;;
53010;SDS011;42803;55.762;38.084;2023-01-30T03:09:57;14.43;;;6.20;;
53010;SDS011;42803;55.762;38.084;2023-01-30T03:12:36;18.58;;;7.00;;
53010;SDS011;42803;55.762;38.084;2023-01-30T03:15:16;19.65;;;7.78;;
53010;SDS011;42803;55.762;38.084;2023-01-30T03:17:50;18.48;;;7.72;;
53010;SDS011;42803;55.762;38.084;2023-01-30T03:20:23;20.45;;;7.95;;
53010;SDS011;42803;55.762;38.084;2023-01-30T03:22:56;15.40;;;7.68;;
53010;SDS011;42803;55.762;38.084;2023-01-30T03:25:28;18.67;;;7.75;;
53010;SDS011;42803;55.762;38.084;2023-01-30T03:27:59;20.00;;;8.57;;
53010;SDS011;42803;55.762;38.084;2023-01-30T03:30:30;18.25;;;8.32;;
53010;SDS011;42803;55.762;38.084;2023-01-30T03:33:06;18.48;;;8.18;;
53010;SDS011;42803;55.762;38.084;2023-01-30T03:35:38;16.55;;;6.97;;
53010;SDS011;42803;55.762;38.084;2023-01-30T03:38:11;20.58;;;7.80;;
53010;SDS011;42803;55.762;38.084;2023-01-30T03:40:41;19.38;;;7.03;;
53010;SDS011;42803;55.762;38.084;2023-01-30T03:43:11;18.33;;;7.72;;
53010;SDS011;42803;55.762;38.084;2023-01-30T03:45:40;18.90;;;7.53;;
53010;SDS011;42803;55.762;38.084;2023-01-30T03:48:09;17.73;;;7.32;;
53010;SDS011;42803;55.762;38.084;2023-01-30T03:50:40;17.02;;;7.20;;
53010;SDS011;42803;55.762;38.084;2023-01-30T03:53:11;16.38;;;6.50;;
53010;SDS011;42803;55.762;38.084;2023-01-30T03:55:40;15.18;;;6.35;;
53010;SDS011;42803;55.762;38.084;2023-01-30T03:58:18;21.05;;;7.57;;
53010;SDS011;42803;55.762;38.084;2023-01-30T04:00:47;16.83;;;6.50;;
53010;SDS011;42803;55.762;38.084;2023-01-30T04:03:16;19.55;;;6.97;;
53010;SDS011;42803;55.762;38.084;2023-01-30T04:05:47;18.98;;;7.03;;
53010;SDS011;42803;55.762;38.084;2023-01-30T04:08:16;17.48;;;6.90;;
53010;SDS011;42803;55.762;38.084;2023-01-30T04:10:45;19.35;;;7.65;;
53010;SDS011;42803;55.762;38.084;2023-01-30T04:13:15;18.13;;;6.72;;
53010;SDS011;42803;55.762;38.084;2023-01-30T04:15:44;17.27;;;5.97;;
53010;SDS011;42803;55.762;38.084;2023-01-30T04:18:33;14.15;;;6.32;;
53010;SDS011;42803;55.762;38.084;2023-01-30T04:21:12;16.60;;;6.20;;
53010;SDS011;42803;55.762;38.084;2023-01-30T04:23:42;17.50;;;6.10;;
53010;SDS011;42803;55.762;38.084;2023-01-30T04:26:11;17.15;;;6.82;;
53010;SDS011;42803;55.762;38.084;2023-01-30T04:28:41;15.88;;;5.85;;
53010;SDS011;42803;55.762;38.084;2023-01-30T04:31:12;16.80;;;7.45;;
53010;SDS011;42803;55.762;38.084;2023-01-30T04:34:02;20.70;;;7.60;;
53010;SDS011;42803;55.762;38.084;2023-01-30T04:36:33;14.45;;;6.30;;
53010;SDS011;42803;55.762;38.084;2023-01-30T04:39:03;12.63;;;5.82;;
53010;SDS011;42803;55.762;38.084;2023-01-30T04:41:33;15.20;;;6.78;;
53010;SDS011;42803;55.762;38.084;2023-01-30T04:44:02;16.40;;;6.55;;
53010;SDS011;42803;55.762;38.084;2023-01-30T04:46:54;14.88;;;6.38;;
53010;SDS011;42803;55.762;38.084;2023-01-30T04:49:23;13.90;;;6.70;;
53010;SDS011;42803;55.762;38.084;2023-01-30T04:51:54;20.60;;;7.72;;
53010;SDS011;42803;55.762;38.084;2023-01-30T04:54:24;14.25;;;5.90;;
53010;SDS011;42803;55.762;38.084;2023-01-30T04:56:53;18.30;;;7.15;;
53010;SDS011;42803;55.762;38.084;2023-01-30T04:59:22;22.80;;;7.68;;
53010;SDS011;42803;55.762;38.084;2023-01-30T05:01:52;18.73;;;6.32;;
53010;SDS011;42803;55.762;38.084;2023-01-30T05:04:22;16.75;;;6.18;;
53010;SDS011;42803;55.762;38.084;2023-01-30T05:06:51;16.33;;;6.25;;
53010;SDS011;42803;55.762;38.084;2023-01-30T05:09:22;16.65;;;6.78;;
53010;SDS011;42803;55.762;38.084;2023-01-30T05:11:51;18.30;;;6.97;;
53010;SDS011;42803;55.762;38.084;2023-01-30T05:14:19;19.08;;;7.35;;
53010;SDS011;42803;55.762;38.084;2023-01-30T05:16:48;16.75;;;6.63;;
53010;SDS011;42803;55.762;38.084;2023-01-30T05:19:17;12.13;;;5.70;;
53010;SDS011;42803;55.762;38.084;2023-01-30T05:21:47;18.83;;;7.32;;
53010;SDS011;42803;55.762;38.084;2023-01-30T05:24:16;15.98;;;6.95;;
53010;SDS011;42803;55.762;38.084;2023-01-30T05:26:46;21.25;;;7.53;;
53010;SDS011;42803;55.762;38.084;2023-01-30T05:29:15;20.33;;;8.18;;
53010;SDS011;42803;55.762;38.084;2023-01-30T05:31:44;20.15;;;7.75;;
53010;SDS011;42803;55.762;38.084;2023-01-30T05:34:14;19.02;;;7.22;;
53010;SDS011;42803;55.762;38.084;2023-01-30T05:36:43;16.60;;;6.40;;
53010;SDS011;42803;55.762;38.084;2023-01-30T05:39:12;19.13;;;6.10;;
53010;SDS011;42803;55.762;38.084;2023-01-30T05:41:41;13.88;;;6.13;;
53010;SDS011;42803;55.762;38.084;2023-01-30T05:44:12;15.65;;;7.55;;
53010;SDS011;42803;55.762;38.084;2023-01-30T05:46:41;19.80;;;8.40;;
53010;SDS011;42803;55.762;38.084;2023-01-30T05:49:10;15.15;;;7.03;;
53010;SDS011;42803;55.762;38.084;2023-01-30T05:51:39;13.85;;;7.03;;
53010;SDS011;42803;55.762;38.084;2023-01-30T05:54:08;18.80;;;6.60;;
53010;SDS011;42803;55.762;38.084;2023-01-30T05:56:37;17.63;;;6.75;;
53010;SDS011;42803;55.762;38.084;2023-01-30T05:59:06;17.05;;;7.07;;
53010;SDS011;42803;55.762;38.084;2023-01-30T06:01:39;16.95;;;7.28;;
53010;SDS011;42803;55.762;38.084;2023-01-30T06:04:09;14.82;;;6.68;;
53010;SDS011;42803;55.762;38.084;2023-01-30T06:06:38;20.25;;;7.28;;
53010;SDS011;42803;55.762;38.084;2023-01-30T06:09:08;17.85;;;7.40;;
53010;SDS011;42803;55.762;38.084;2023-01-30T06:11:38;17.17;;;6.35;;
53010;SDS011;42803;55.762;38.084;2023-01-30T06:14:07;18.73;;;7.00;;
53010;SDS011;42803;55.762;38.084;2023-01-30T06:16:36;15.73;;;6.20;;
53010;SDS011;42803;55.762;38.084;2023-01-30T06:19:07;17.35;;;6.25;;
53010;SDS011;42803;55.762;38.084;2023-01-30T06:21:37;15.00;;;7.15;;
53010;SDS011;42803;55.762;38.084;2023-01-30T06:24:06;17.70;;;6.90;;
53010;SDS011;42803;55.762;38.084;2023-01-30T06:26:35;15.93;;;7.53;;
53010;SDS011;42803;55.762;38.084;2023-01-30T06:29:04;18.48;;;6.63;;
53010;SDS011;42803;55.762;38.084;2023-01-30T06:31:33;15.75;;;6.50;;
53010;SDS011;42803;55.762;38.084;2023-01-30T06:34:03;13.95;;;6.07;;
53010;SDS011;42803;55.762;38.084;2023-01-30T06:36:33;16.08;;;6.43;;
53010;SDS011;42803;55.762;38.084;2023-01-30T06:39:02;15.50;;;6.57;;
53010;SDS011;42803;55.762;38.084;2023-01-30T06:41:31;17.08;;;7.07;;
53010;SDS011;42803;55.762;38.084;2023-01-30T06:44:00;16.75;;;7.03;;
53010;SDS011;42803;55.762;38.084;2023-01-30T06:46:29;14.45;;;6.22;;
53010;SDS011;42803;55.762;38.084;2023-01-30T06:48:58;14.57;;;6.70;;
53010;SDS011;42803;55.762;38.084;2023-01-30T06:51:27;11.68;;;6.03;;
53010;SDS011;42803;55.762;38.084;2023-01-30T06:53:58;16.17;;;6.88;;
53010;SDS011;42803;55.762;38.084;2023-01-30T06:56:27;17.90;;;7.10;;
53010;SDS011;42803;55.762;38.084;2023-01-30T06:58:56;14.70;;;6.15;;
53010;SDS011;42803;55.762;38.084;2023-01-30T07:01:25;10.88;;;5.85;;
53010;SDS011;42803;55.762;38.084;2023-01-30T07:03:55;13.13;;;5.25;;
53010;SDS011;42803;55.762;38.084;2023-01-30T07:06:24;13.55;;;6.05;;
53010;SDS011;42803;55.762;38.084;2023-01-30T07:08:55;18.73;;;7.20;;
53010;SDS011;42803;55.762;38.084;2023-01-30T07:11:26;13.50;;;6.20;;
53010;SDS011;42803;55.762;38.084;2023-01-30T07:13:56;14.45;;;6.65;;
53010;SDS011;42803;55.762;38.084;2023-01-30T07:16:25;11.45;;;5.80;;
53010;SDS011;42803;55.762;38.084;2023-01-30T07:18:55;14.90;;;6.82;;
53010;SDS011;42803;55.762;38.084;2023-01-30T07:21:25;13.60;;;6.50;;
53010;SDS011;42803;55.762;38.084;2023-01-30T07:23:54;16.60;;;7.13;;
53010;SDS011;42803;55.762;38.084;2023-01-30T07:26:24;17.90;;;6.07;;
53010;SDS011;42803;55.762;38.084;2023-01-30T07:28:55;13.75;;;7.30;;
53010;SDS011;42803;55.762;38.084;2023-01-30T07:31:30;12.65;;;5.82;;
53010;SDS011;42803;55.762;38.084;2023-01-30T07:33:59;13.52;;;6.82;;
53010;SDS011;42803;55.762;38.084;2023-01-30T07:36:29;16.23;;;7.05;;
53010;SDS011;42803;55.762;38.084;2023-01-30T07:38:59;13.05;;;5.90;;
53010;SDS011;42803;55.762;38.084;2023-01-30T07:41:30;18.27;;;6.10;;
53010;SDS011;42803;55.762;38.084;2023-01-30T07:44:00;13.88;;;5.97;;
53010;SDS011;42803;55.762;38.084;2023-01-30T07:46:29;13.15;;;5.57;;
53010;SDS011;42803;55.762;38.084;2023-01-30T07:49:01;15.20;;;5.93;;
53010;SDS011;42803;55.762;38.084;2023-01-30T07:51:31;14.38;;;6.30;;
53010;SDS011;42803;55.762;38.084;2023-01-30T07:54:00;14.30;;;6.43;;
53010;SDS011;42803;55.762;38.084;2023-01-30T07:56:31;10.93;;;5.10;;
53010;SDS011;42803;55.762;38.084;2023-01-30T07:59:00;13.63;;;5.55;;
53010;SDS011;42803;55.762;38.084;2023-01-30T08:01:31;14.15;;;6.00;;
53010;SDS011;42803;55.762;38.084;2023-01-30T08:04:01;12.70;;;5.82;;
53010;SDS011;42803;55.762;38.084;2023-01-30T08:06:30;9.82;;;5.32;;
53010;SDS011;42803;55.762;38.084;2023-01-30T08:09:03;12.07;;;5.70;;
53010;SDS011;42803;55.762;38.084;2023-01-30T08:11:34;13.38;;;6.50;;
53010;SDS011;42803;55.762;38.084;2023-01-30T08:14:03;13.20;;;5.65;;
53010;SDS011;42803;55.762;38.084;2023-01-30T08:16:32;11.82;;;5.18;;
53010;SDS011;42803;55.762;38.084;2023-01-30T08:19:03;10.13;;;4.85;;
53010;SDS011;42803;55.762;38.084;2023-01-30T08:21:32;13.95;;;5.47;;
53010;SDS011;42803;55.762;38.084;2023-01-30T08:24:01;10.63;;;5.30;;
53010;SDS011;42803;55.762;38.084;2023-01-30T08:26:31;8.93;;;4.88;;
53010;SDS011;42803;55.762;38.084;2023-01-30T08:29:01;9.43;;;4.70;;
53010;SDS011;42803;55.762;38.084;2023-01-30T08:31:30;8.70;;;4.72;;
53010;SDS011;42803;55.762;38.084;2023-01-30T08:34:00;9.45;;;5.32;;
53010;SDS011;42803;55.762;38.084;2023-01-30T08:36:29;12.32;;;5.43;;
53010;SDS011;42803;55.762;38.084;2023-01-30T08:38:58;9.40;;;4.90;;
53010;SDS011;42803;55.762;38.084;2023-01-30T08:41:27;6.80;;;4.20;;
53010;SDS011;42803;55.762;38.084;2023-01-30T08:43:56;12.75;;;5.22;;
53010;SDS011;42803;55.762;38.084;2023-01-30T08:46:26;11.23;;;5.40;;
53010;SDS011;42803;55.762;38.084;2023-01-30T08:48:55;11.57;;;4.78;;
53010;SDS011;42803;55.762;38.084;2023-01-30T08:51:25;11.90;;;5.25;;
53010;SDS011;42803;55.762;38.084;2023-01-30T08:53:54;12.65;;;4.97;;
53010;SDS011;42803;55.762;38.084;2023-01-30T08:56:23;13.32;;;4.43;;
53010;SDS011;42803;55.762;38.084;2023-01-30T08:58:52;10.65;;;5.38;;
53010;SDS011;42803;55.762;38.084;2023-01-30T09:01:21;12.38;;;5.38;;
53010;SDS011;42803;55.762;38.084;2023-01-30T09:03:51;11.20;;;5.78;;
53010;SDS011;42803;55.762;38.084;2023-01-30T09:06:20;10.68;;;4.70;;
53010;SDS011;42803;55.762;38.084;2023-01-30T09:08:52;12.93;;;5.57;;
53010;SDS011;42803;55.762;38.084;2023-01-30T09:11:21;14.48;;;5.30;;
53010;SDS011;42803;55.762;38.084;2023-01-30T09:13:50;9.65;;;4.60;;
53010;SDS011;42803;55.762;38.084;2023-01-30T09:16:19;11.82;;;4.63;;
53010;SDS011;42803;55.762;38.084;2023-01-30T09:18:48;9.60;;;4.93;;
53010;SDS011;42803;55.762;38.084;2023-01-30T09:21:18;10.73;;;4.70;;
53010;SDS011;42803;55.762;38.084;2023-01-30T09:23:48;10.75;;;5.47;;
53010;SDS011;42803;55.762;38.084;2023-01-30T09:26:17;11.15;;;4.82;;
53010;SDS011;42803;55.762;38.084;2023-01-30T09:28:46;11.82;;;5.40;;
53010;SDS011;42803;55.762;38.084;2023-01-30T09:31:15;10.18;;;5.60;;
53010;SDS011;42803;55.762;38.084;2023-01-30T09:33:44;11.10;;;4.40;;
53010;SDS011;42803;55.762;38.084;2023-01-30T09:36:13;13.27;;;5.15;;
53010;SDS011;42803;55.762;38.084;2023-01-30T09:38:44;15.07;;;6.88;;
53010;SDS011;42803;55.762;38.084;2023-01-30T09:41:20;16.00;;;6.78;;
53010;SDS011;42803;55.762;38.084;2023-01-30T09:44:05;11.65;;;6.13;;
53010;SDS011;42803;55.762;38.084;2023-01-30T09:46:47;12.43;;;5.72;;
53010;SDS011;42803;55.762;38.084;2023-01-30T09:49:28;11.15;;;5.03;;
53010;SDS011;42803;55.762;38.084;2023-01-30T09:52:12;8.13;;;4.10;;
53010;SDS011;42803;55.762;38.084;2023-01-30T09:54:51;11.10;;;5.72;;
53010;SDS011;42803;55.762;38.084;2023-01-30T09:57:25;11.10;;;6.07;;
53010;SDS011;42803;55.762;38.084;2023-01-30T09:59:56;11.25;;;5.47;;
53010;SDS011;42803;55.762;38.084;2023-01-30T10:02:40;11.50;;;5.50;;
53010;SDS011;42803;55.762;38.084;2023-01-30T10:05:15;12.75;;;6.00;;
53010;SDS011;42803;55.762;38.084;2023-01-30T10:07:48;12.10;;;5.32;;
53010;SDS011;42803;55.762;38.084;2023-01-30T10:10:33;17.48;;;6.32;;
53010;SDS011;42803;55.762;38.084;2023-01-30T10:13:26;11.35;;;6.20;;
53010;SDS011;42803;55.762;38.084;2023-01-30T10:16:06;15.82;;;6.57;;
53010;SDS011;42803;55.762;38.084;2023-01-30T10:22:04;15.02;;;5.38;;
53010;SDS011;42803;55.762;38.084;2023-01-30T10:24:47;12.05;;;5.38;;
53010;SDS011;42803;55.762;38.084;2023-01-30T10:27:25;11.88;;;5.90;;
53010;SDS011;42803;55.762;38.084;2023-01-30T10:29:58;15.20;;;6.22;;
53010;SDS011;42803;55.762;38.084;2023-01-30T10:32:31;14.73;;;7.22;;
53010;SDS011;42803;55.762;38.084;2023-01-30T10:35:12;13.80;;;5.60;;
53010;SDS011;42803;55.762;38.084;2023-01-30T10:37:49;13.65;;;6.68;;
53010;SDS011;42803;55.762;38.084;2023-01-30T10:40:25;15.52;;;6.93;;
53010;SDS011;42803;55.762;38.084;2023-01-30T10:43:01;12.77;;;6.30;;
53010;SDS011;42803;55.762;38.084;2023-01-30T10:48:21;12.27;;;5.65;;
53010;SDS011;42803;55.762;38.084;2023-01-30T10:51:17;7.60;;;4.30;;
53010;SDS011;42803;55.762;38.084;2023-01-30T10:53:52;10.95;;;5.15;;
53010;SDS011;42803;55.762;38.084;2023-01-30T10:56:28;11.00;;;5.20;;
53010;SDS011;42803;55.762;38.084;2023-01-30T10:59:09;12.32;;;5.70;;
53010;SDS011;42803;55.762;38.084;2023-01-30T11:01:56;10.70;;;5.68;;
53010;SDS011;42803;55.762;38.084;2023-01-30T11:04:29;11.75;;;6.18;;
53010;SDS011;42803;55.762;38.084;2023-01-30T11:07:01;10.55;;;5.13;;
53010;SDS011;42803;55.762;38.084;2023-01-30T11:09:38;9.90;;;4.95;;
53010;SDS011;42803;55.762;38.084;2023-01-30T11:12:08;12.82;;;4.78;;
53010;SDS011;42803;55.762;38.084;2023-01-30T11:14:52;13.48;;;6.50;;
53010;SDS011;42803;55.762;38.084;2023-01-30T11:17:27;12.63;;;6.47;;
53010;SDS011;42803;55.762;38.084;2023-01-30T11:20:00;10.70;;;6.95;;
53010;SDS011;42803;55.762;38.084;2023-01-30T11:25:04;9.40;;;5.25;;
53010;SDS011;42803;55.762;38.084;2023-01-30T11:27:39;13.15;;;5.03;;
53010;SDS011;42803;55.762;38.084;2023-01-30T11:30:15;12.15;;;5.20;;
53010;SDS011;42803;55.762;38.084;2023-01-30T11:32:47;12.85;;;5.63;;
53010;SDS011;42803;55.762;38.084;2023-01-30T11:35:24;12.10;;;5.80;;
53010;SDS011;42803;55.762;38.084;2023-01-30T11:37:57;13.20;;;5.93;;
53010;SDS011;42803;55.762;38.084;2023-01-30T11:40:39;13.20;;;6.17;;
53010;SDS011;42803;55.762;38.084;2023-01-30T11:43:10;15.80;;;6.13;;
53010;SDS011;42803;55.762;38.084;2023-01-30T11:45:44;15.27;;;5.95;;
53010;SDS011;42803;55.762;38.084;2023-01-30T11:48:18;13.27;;;6.13;;
53010;SDS011;42803;55.762;38.084;2023-01-30T11:51:08;15.10;;;5.88;;
53010;SDS011;42803;55.762;38.084;2023-01-30T11:53:39;12.57;;;6.15;;
53010;SDS011;42803;55.762;38.084;2023-01-30T11:56:16;15.85;;;7.10;;
53010;SDS011;42803;55.762;38.084;2023-01-30T11:58:52;12.20;;;5.63;;
53010;SDS011;42803;55.762;38.084;2023-01-30T12:01:27;14.02;;;6.53;;
53010;SDS011;42803;55.762;38.084;2023-01-30T12:03:57;9.63;;;5.15;;
53010;SDS011;42803;55.762;38.084;2023-01-30T12:06:28;12.32;;;5.78;;
53010;SDS011;42803;55.762;38.084;2023-01-30T12:08:59;10.50;;;4.72;;
53010;SDS011;42803;55.762;38.084;2023-01-30T12:11:30;11.57;;;5.70;;
53010;SDS011;42803;55.762;38.084;2023-01-30T12:14:13;8.75;;;5.07;;
53010;SDS011;42803;55.762;38.084;2023-01-30T12:16:55;13.82;;;6.07;;
53010;SDS011;42803;55.762;38.084;2023-01-30T12:19:39;11.05;;;6.05;;
53010;SDS011;42803;55.762;38.084;2023-01-30T12:22:20;10.13;;;5.28;;
53010;SDS011;42803;55.762;38.084;2023-01-30T12:24:57;12.93;;;5.47;;
53010;SDS011;42803;55.762;38.084;2023-01-30T12:27:43;11.70;;;5.28;;
53010;SDS011;42803;55.762;38.084;2023-01-30T12:30:20;10.55;;;5.35;;
53010;SDS011;42803;55.762;38.084;2023-01-30T12:32:57;10.85;;;5.50;;
53010;SDS011;42803;55.762;38.084;2023-01-30T12:38:45;13.70;;;5.45;;
53010;SDS011;42803;55.762;38.084;2023-01-30T12:44:27;8.82;;;5.03;;
53010;SDS011;42803;55.762;38.084;2023-01-30T12:47:13;12.40;;;4.88;;
53010;SDS011;42803;55.762;38.084;2023-01-30T12:49:54;13.18;;;5.95;;
53010;SDS011;42803;55.762;38.084;2023-01-30T12:52:40;16.10;;;6.03;;
53010;SDS011;42803;55.762;38.084;2023-01-30T12:55:25;13.13;;;5.72;;
53010;SDS011;42803;55.762;38.084;2023-01-30T12:58:05;13.80;;;6.20;;
53010;SDS011;42803;55.762;38.084;2023-01-30T13:00:48;11.60;;;4.80;;
53010;SDS011;42803;55.762;38.084;2023-01-30T13:03:37;8.65;;;4.80;;
53010;SDS011;42803;55.762;38.084;2023-01-30T13:06:17;10.35;;;4.80;;
53010;SDS011;42803;55.762;38.084;2023-01-30T13:11:40;11.88;;;4.40;;
53010;SDS011;42803;55.762;38.084;2023-01-30T13:14:19;12.50;;;5.65;;
53010;SDS011;42803;55.762;38.084;2023-01-30T13:17:00;11.52;;;5.15;;
53010;SDS011;42803;55.762;38.084;2023-01-30T13:19:42;9.80;;;5.05;;
53010;SDS011;42803;55.762;38.084;2023-01-30T13:22:19;10.05;;;4.85;;
53010;SDS011;42803;55.762;38.084;2023-01-30T13:24:55;8.82;;;4.68;;
53010;SDS011;42803;55.762;38.084;2023-01-30T13:27:32;6.43;;;4.05;;
53010;SDS011;42803;55.762;38.084;2023-01-30T13:30:05;9.98;;;4.38;;
53010;SDS011;42803;55.762;38.084;2023-01-30T13:32:37;11.48;;;4.78;;
53010;SDS011;42803;55.762;38.084;2023-01-30T13:35:16;9.85;;;4.88;;
53010;SDS011;42803;55.762;38.084;2023-01-30T13:37:51;11.10;;;4.88;;
53010;SDS011;42803;55.762;38.084;2023-01-30T13:40:22;8.10;;;4.30;;
53010;SDS011;42803;55.762;38.084;2023-01-30T13:42:54;10.25;;;5.15;;
53010;SDS011;42803;55.762;38.084;2023-01-30T13:45:27;9.82;;;4.80;;
53010;SDS011;42803;55.762;38.084;2023-01-30T13:48:07;11.95;;;4.57;;
53010;SDS011;42803;55.762;38.084;2023-01-30T13:50:50;10.63;;;5.10;;
53010;SDS011;42803;55.762;38.084;2023-01-30T13:53:31;13.00;;;4.60;;
53010;SDS011;42803;55.762;38.084;2023-01-30T13:56:10;7.80;;;4.50;;
53010;SDS011;42803;55.762;38.084;2023-01-30T13:59:09;10.82;;;3.88;;
53010;SDS011;42803;55.762;38.084;2023-01-30T14:04:51;8.93;;;4.45;;
53010;SDS011;42803;55.762;38.084;2023-01-30T14:07:25;9.77;;;4.78;;
53010;SDS011;42803;55.762;38.084;2023-01-30T14:10:13;10.32;;;4.22;;
53010;SDS011;42803;55.762;38.084;2023-01-30T14:12:47;6.32;;;3.92;;
53010;SDS011;42803;55.762;38.084;2023-01-30T14:15:23;8.07;;;3.72;;
53010;SDS011;42803;55.762;38.084;2023-01-30T14:17:55;9.73;;;3.30;;
53010;SDS011;42803;55.762;38.084;2023-01-30T14:20:26;9.02;;;3.92;;
53010;SDS011;42803;55.762;38.084;2023-01-30T14:22:57;12.35;;;4.88;;
53010;SDS011;42803;55.762;38.084;2023-01-30T14:25:33;8.48;;;4.53;;
53010;SDS011;42803;55.762;38.084;2023-01-30T14:34:36;8.80;;;4.43;;
53010;SDS011;42803;55.762;38.084;2023-01-30T14:37:39;8.93;;;4.45;;
53010;SDS011;42803;55.762;38.084;2023-01-30T14:43:45;6.80;;;3.15;;
53010;SDS011;42803;55.762;38.084;2023-01-30T14:49:28;11.90;;;4.70;;
53010;SDS011;42803;55.762;38.084;2023-01-30T14:51:59;3.20;;;2.45;;
53010;SDS011;42803;55.762;38.084;2023-01-30T14:54:31;7.47;;;4.15;;
53010;SDS011;42803;55.762;38.084;2023-01-30T14:57:15;11.93;;;5.15;;
53010;SDS011;42803;55.762;38.084;2023-01-30T14:59:52;9.02;;;4.10;;
53010;SDS011;42803;55.762;38.084;2023-01-30T15:02:46;6.35;;;4.22;;
53010;SDS011;42803;55.762;38.084;2023-01-30T15:05:20;10.48;;;3.60;;
53010;SDS011;42803;55.762;38.084;2023-01-30T15:07:55;4.78;;;2.47;;
53010;SDS011;42803;55.762;38.084;2023-01-30T15:10:34;5.38;;;3.13;;
53010;SDS011;42803;55.762;38.084;2023-01-30T15:13:22;7.03;;;3.92;;
53010;SDS011;42803;55.762;38.084;2023-01-30T15:16:11;6.05;;;3.60;;
53010;SDS011;42803;55.762;38.084;2023-01-30T15:18:55;4.82;;;2.58;;
53010;SDS011;42803;55.762;38.084;2023-01-30T15:24:44;8.95;;;2.75;;
53010;SDS011;42803;55.762;38.084;2023-01-30T15:27:42;9.85;;;3.40;;
53010;SDS011;42803;55.762;38.084;2023-01-30T15:30:31;6.57;;;3.10;;
53010;SDS011;42803;55.762;38.084;2023-01-30T15:33:15;7.22;;;3.67;;
53010;SDS011;42803;55.762;38.084;2023-01-30T15:35:56;8.00;;;4.15;;
53010;SDS011;42803;55.762;38.084;2023-01-30T15:38:27;6.25;;;3.58;;
53010;SDS011;42803;55.762;38.084;2023-01-30T15:40:58;8.10;;;3.47;;
53010;SDS011;42803;55.762;38.084;2023-01-30T15:43:42;5.88;;;3.63;;
53010;SDS011;42803;55.762;38.084;2023-01-30T15:46:22;4.65;;;2.95;;
53010;SDS011;42803;55.762;38.084;2023-01-30T15:52:09;8.77;;;3.92;;
53010;SDS011;42803;55.762;38.084;2023-01-30T15:54:46;4.10;;;2.42;;